createdAt,value
2022-09-26T00:03:03.748Z,2.63
2022-09-26T00:08:29.414Z,4.32
2022-09-26T00:13:54.745Z,2.78
2022-09-26T00:19:21.193Z,7.32
2022-09-26T00:24:45.845Z,4.93
2022-09-26T00:30:11.653Z,2.55
2022-09-26T00:35:38.789Z,3.70
2022-09-26T00:41:05.172Z,9.80
2022-09-26T00:46:34.155Z,4.90
2022-09-26T00:52:04.807Z,2.63
2022-09-26T00:57:34.282Z,3.38
2022-09-26T01:02:59.526Z,8.50
2022-09-26T01:08:32.164Z,3.10
2022-09-26T01:13:58.843Z,3.60
2022-09-26T01:19:30.388Z,4.45
2022-09-26T01:25:15.364Z,4.43
2022-09-26T01:30:46.850Z,5.82
2022-09-26T01:36:32.608Z,6.32
2022-09-26T01:42:08.732Z,6.00
2022-09-26T01:47:42.188Z,3.05
2022-09-26T01:53:13.186Z,2.35
2022-09-26T01:58:42.770Z,3.50
2022-09-26T02:04:12.362Z,6.97
2022-09-26T02:15:11.973Z,8.30
2022-09-26T02:26:04.314Z,3.35
2022-09-26T02:31:33.134Z,5.80
2022-09-26T02:37:01.250Z,10.07
2022-09-26T02:42:36.635Z,9.60
2022-09-26T02:48:24.781Z,16.23
2022-09-26T02:54:05.681Z,13.32
2022-09-26T02:59:49.514Z,40.45
2022-09-26T03:05:20.448Z,22.85
2022-09-26T03:10:48.351Z,15.45
2022-09-26T03:16:14.726Z,8.73
2022-09-26T03:21:39.449Z,11.48
2022-09-26T03:27:08.584Z,27.88
2022-09-26T03:32:33.454Z,21.73
2022-09-26T03:37:58.370Z,22.55
2022-09-26T03:43:25.665Z,21.25
2022-09-26T03:48:51.636Z,15.27
2022-09-26T03:54:16.699Z,14.68
2022-09-26T03:59:44.492Z,13.13
2022-09-26T04:05:11.296Z,5.90
2022-09-26T04:10:37.315Z,8.30
2022-09-26T04:16:05.301Z,11.30
2022-09-26T04:21:30.042Z,8.20
2022-09-26T04:26:55.945Z,11.77
2022-09-26T04:32:22.833Z,17.92
2022-09-26T04:38:10.658Z,18.67
2022-09-26T04:43:37.469Z,18.75
2022-09-26T04:49:06.046Z,19.85
2022-09-26T04:54:32.085Z,16.73
2022-09-26T04:59:57.588Z,20.08
2022-09-26T05:05:26.290Z,10.30
2022-09-26T05:10:55.001Z,8.27
2022-09-26T05:16:19.577Z,9.63
2022-09-26T05:21:51.583Z,17.15
2022-09-26T05:27:19.236Z,18.80
2022-09-26T05:32:46.124Z,13.88
2022-09-26T05:38:11.952Z,21.02
2022-09-26T05:43:38.754Z,14.75
2022-09-26T05:49:07.114Z,9.27
2022-09-26T05:54:33.349Z,14.82
2022-09-26T06:00:02.836Z,15.43
2022-09-26T06:05:46.688Z,15.77
2022-09-26T06:11:27.482Z,17.17
2022-09-26T06:16:52.169Z,20.13
2022-09-26T06:22:16.589Z,22.92
2022-09-26T06:27:42.523Z,20.52
2022-09-26T06:33:06.991Z,15.88
2022-09-26T06:38:36.905Z,13.35
2022-09-26T06:44:04.254Z,13.38
2022-09-26T06:49:55.265Z,17.13
2022-09-26T06:55:24.061Z,15.93
2022-09-26T07:00:49.631Z,16.42
2022-09-26T07:06:25.049Z,14.05
2022-09-26T07:12:14.018Z,16.10
2022-09-26T07:17:35.315Z,13.38
2022-09-26T07:23:06.736Z,13.45
2022-09-26T07:28:32.299Z,13.45
2022-09-26T07:33:58.308Z,11.65
2022-09-26T07:39:23.033Z,9.52
2022-09-26T07:50:34.677Z,8.18
2022-09-26T07:56:10.417Z,11.80
2022-09-26T08:01:55.748Z,10.60
2022-09-26T08:07:39.736Z,13.48
2022-09-26T08:13:12.140Z,13.43
2022-09-26T08:18:50.977Z,12.27
2022-09-26T08:24:18.059Z,7.13
2022-09-26T08:29:58.705Z,12.45
2022-09-26T08:35:23.570Z,15.90
2022-09-26T08:41:32.829Z,6.38
2022-09-26T08:47:21.629Z,13.07
2022-09-26T08:53:11.047Z,5.30
2022-09-26T08:58:48.272Z,6.53
2022-09-26T09:04:18.713Z,5.10
2022-09-26T09:09:43.790Z,7.00
2022-09-26T09:15:46.600Z,9.00
2022-09-26T09:21:28.670Z,8.88
2022-09-26T09:33:15.704Z,12.38
2022-09-26T09:38:48.128Z,5.72
2022-09-26T09:44:37.371Z,5.63
2022-09-26T09:50:03.391Z,6.00
2022-09-26T09:55:43.497Z,5.32
2022-09-26T10:01:16.232Z,4.15
2022-09-26T10:06:46.328Z,10.18
2022-09-26T10:12:18.331Z,4.30
2022-09-26T10:18:25.095Z,7.55
2022-09-26T10:24:10.521Z,5.55
2022-09-26T10:29:47.343Z,5.82
2022-09-26T10:35:20.120Z,4.78
2022-09-26T10:40:54.997Z,4.35
2022-09-26T10:46:24.591Z,3.53
2022-09-26T10:52:18.188Z,10.48
2022-09-26T10:57:49.132Z,7.38
2022-09-26T11:03:18.930Z,3.78
2022-09-26T11:09:22.311Z,3.83
2022-09-26T11:15:10.122Z,3.65
2022-09-26T11:20:45.245Z,3.17
2022-09-26T11:26:17.086Z,8.63
2022-09-26T11:31:44.044Z,6.72
2022-09-26T11:38:05.568Z,3.78
2022-09-26T11:43:45.541Z,9.60
2022-09-26T11:49:40.149Z,6.43
2022-09-26T11:55:32.278Z,11.75
2022-09-26T12:01:05.573Z,2.40
2022-09-26T12:06:35.306Z,2.65
2022-09-26T12:12:10.104Z,2.28
2022-09-26T12:17:44.966Z,3.22
2022-09-26T12:23:22.070Z,5.60
2022-09-26T12:29:04.644Z,3.03
2022-09-26T12:34:43.648Z,8.15
2022-09-26T12:40:29.218Z,3.60
2022-09-26T12:46:38.146Z,4.55
2022-09-26T12:52:11.347Z,2.17
2022-09-26T12:57:43.133Z,4.13
2022-09-26T13:03:32.874Z,2.00
2022-09-26T13:09:15.974Z,6.20
2022-09-26T13:15:02.779Z,1.58
2022-09-26T13:20:33.265Z,1.80
2022-09-26T13:26:01.222Z,4.60
2022-09-26T13:31:32.653Z,2.63
2022-09-26T13:37:00.425Z,1.92
2022-09-26T13:42:36.322Z,10.50
2022-09-26T13:48:09.210Z,3.97
2022-09-26T13:53:41.231Z,3.47
2022-09-26T13:59:06.864Z,2.25
2022-09-26T14:04:36.491Z,3.88
2022-09-26T14:10:14.172Z,3.72
2022-09-26T14:15:57.997Z,3.03
2022-09-26T14:21:42.190Z,6.18
2022-09-26T14:27:44.385Z,4.20
2022-09-26T14:33:14.935Z,4.78
2022-09-26T14:38:41.988Z,2.95
2022-09-26T14:44:19.013Z,6.43
2022-09-26T14:49:44.506Z,7.03
2022-09-26T14:55:16.649Z,2.83
2022-09-26T15:00:47.585Z,9.95
2022-09-26T15:06:14.615Z,6.88
2022-09-26T15:11:47.241Z,3.50
2022-09-26T15:17:19.716Z,2.95
2022-09-26T15:22:46.234Z,3.42
2022-09-26T15:28:12.900Z,2.70
2022-09-26T15:33:39.931Z,6.75
2022-09-26T15:39:42.140Z,7.07
2022-09-26T15:45:23.090Z,4.55
2022-09-26T15:50:51.281Z,4.78
2022-09-26T15:56:20.341Z,7.18
2022-09-26T16:01:48.807Z,8.43
2022-09-26T16:07:20.684Z,3.33
2022-09-26T16:12:45.640Z,3.03
2022-09-26T16:18:27.457Z,5.32
2022-09-26T16:23:53.369Z,3.72
2022-09-26T16:29:30.949Z,3.00
2022-09-26T16:35:12.289Z,3.92
2022-09-26T16:40:37.317Z,12.63
2022-09-26T16:46:03.525Z,9.57
2022-09-26T16:51:32.797Z,8.70
2022-09-26T16:56:58.177Z,14.20
2022-09-26T17:02:27.308Z,11.30
2022-09-26T17:07:53.974Z,4.93
2022-09-26T17:13:22.860Z,5.50
2022-09-26T17:18:47.118Z,7.03
2022-09-26T17:24:16.391Z,3.58
2022-09-26T17:29:45.075Z,5.40
2022-09-26T17:35:16.928Z,5.97
2022-09-26T17:40:45.767Z,3.80
2022-09-26T17:46:15.349Z,5.13
2022-09-26T17:51:40.720Z,3.08
2022-09-26T17:57:09.960Z,3.08
2022-09-26T18:02:37.984Z,3.20
2022-09-26T18:08:10.246Z,10.10
2022-09-26T18:13:39.438Z,7.35
2022-09-26T18:19:07.543Z,4.38
2022-09-26T18:24:32.873Z,3.85
2022-09-26T18:29:59.051Z,8.35
2022-09-26T18:35:27.118Z,9.55
2022-09-26T18:40:55.320Z,6.18
2022-09-26T18:46:22.897Z,5.23
2022-09-26T18:51:52.334Z,5.13
2022-09-26T18:57:34.277Z,7.22
2022-09-26T19:03:00.253Z,3.72
2022-09-26T19:08:33.545Z,8.15
2022-09-26T19:14:00.736Z,4.72
2022-09-26T19:19:28.673Z,3.08
2022-09-26T19:24:55.304Z,2.60
2022-09-26T19:30:22.225Z,9.65
2022-09-26T19:35:49.096Z,3.42
2022-09-26T19:41:17.469Z,3.03
2022-09-26T19:46:42.510Z,3.17
2022-09-26T19:52:15.987Z,8.07
2022-09-26T19:57:42.710Z,5.97
2022-09-26T20:03:15.630Z,14.27
2022-09-26T20:08:44.113Z,6.00
2022-09-26T20:14:26.676Z,10.38
2022-09-26T20:19:58.967Z,8.80
2022-09-26T20:25:29.634Z,8.85
2022-09-26T20:30:59.209Z,8.50
2022-09-26T20:36:31.511Z,8.93
2022-09-26T20:42:00.136Z,10.18
2022-09-26T20:47:27.015Z,8.43
2022-09-26T20:52:52.667Z,12.60
2022-09-26T20:58:19.082Z,9.80
2022-09-26T21:03:49.151Z,13.07
2022-09-26T21:09:16.918Z,8.55
2022-09-26T21:14:43.762Z,8.10
2022-09-26T21:20:16.603Z,9.73
2022-09-26T21:26:05.377Z,10.95
2022-09-26T21:31:34.578Z,8.75
2022-09-26T21:37:00.429Z,7.43
2022-09-26T21:42:26.919Z,7.57
2022-09-26T21:47:53.454Z,7.63
2022-09-26T21:53:22.256Z,9.13
2022-09-26T21:58:48.066Z,3.73
2022-09-26T22:04:14.532Z,7.03
2022-09-26T22:09:39.277Z,7.00
2022-09-26T22:15:06.202Z,8.10
2022-09-26T22:20:32.446Z,6.38
2022-09-26T22:25:57.191Z,10.00
2022-09-26T22:31:22.250Z,7.35
2022-09-26T22:36:51.351Z,7.15
2022-09-26T22:42:15.901Z,5.95
2022-09-26T22:47:40.528Z,10.82
2022-09-26T22:53:07.083Z,9.40
2022-09-26T22:58:33.165Z,13.38
2022-09-26T23:04:00.410Z,10.85
2022-09-26T23:09:26.477Z,12.57
2022-09-26T23:14:51.043Z,8.23
2022-09-26T23:20:15.422Z,7.18
2022-09-26T23:25:46.671Z,6.97
2022-09-26T23:31:11.829Z,9.23
2022-09-26T23:36:36.584Z,11.13
2022-09-26T23:42:03.186Z,10.75
2022-09-26T23:47:27.232Z,9.80
2022-09-26T23:52:52.514Z,8.25
2022-09-26T23:58:21.242Z,8.55
